Woburn, Canada
Current Conditions -  °F | °C
As of 2:00 AM on Monday 24 Nov 2014 (Local Time) from CYSC Reporting Station
Overcast Overcast  
Wind Chill: 38°   Ceiling: 8500
Heat Index: 41°   Visibility: 9mi
Dew Point: 39°   Wind: 5mph
Humidity: 93%   Direction: 80°E
Pressure: 29.93"   Gusts: NA
Location:  45.38°N, 70.87°W
Report Text: CYSC 240700Z AUTO 08004KT 9SM OVC085 05/04 A2993 RMK SLP144
Loading
Personal Weather Stations






























Interactive Weather Map New forecast layout! Learn more

10-Day Weather Forecast

Advertisements
Track Severe Weather on mobile